sensor_id;sensor_type;location;lat;lon;timestamp;pressure;altitude;pressure_sealevel;temperature;humidity
19748;BME280;10032;51.386;12.516;2024-01-30T00:02:17;101610.28;;;2.92;100.00
19748;BME280;10032;51.386;12.516;2024-01-30T00:04:43;101609.59;;;2.90;100.00
19748;BME280;10032;51.386;12.516;2024-01-30T00:07:08;101600.38;;;2.85;100.00
19748;BME280;10032;51.386;12.516;2024-01-30T00:09:33;101610.28;;;2.84;100.00
19748;BME280;10032;51.386;12.516;2024-01-30T00:11:59;101615.94;;;2.81;100.00
19748;BME280;10032;51.386;12.516;2024-01-30T00:14:24;101616.28;;;2.78;100.00
19748;BME280;10032;51.386;12.516;2024-01-30T00:16:53;101615.94;;;2.73;100.00
19748;BME280;10032;51.386;12.516;2024-01-30T00:19:19;101624.97;;;2.72;100.00
19748;BME280;10032;51.386;12.516;2024-01-30T00:21:44;101616.94;;;2.72;100.00
19748;BME280;10032;51.386;12.516;2024-01-30T00:24:09;101624.13;;;2.72;100.00
19748;BME280;10032;51.386;12.516;2024-01-30T00:26:35;101618.41;;;2.67;100.00
19748;BME280;10032;51.386;12.516;2024-01-30T00:29:00;101620.25;;;2.66;100.00
19748;BME280;10032;51.386;12.516;2024-01-30T00:31:26;101615.72;;;2.59;100.00
19748;BME280;10032;51.386;12.516;2024-01-30T00:33:51;101617.56;;;2.58;100.00
19748;BME280;10032;51.386;12.516;2024-01-30T00:36:17;101614.38;;;2.55;100.00
19748;BME280;10032;51.386;12.516;2024-01-30T00:38:42;101613.22;;;2.57;100.00
19748;BME280;10032;51.386;12.516;2024-01-30T00:41:08;101611.03;;;2.61;100.00
19748;BME280;10032;51.386;12.516;2024-01-30T00:43:34;101604.69;;;2.62;100.00
19748;BME280;10032;51.386;12.516;2024-01-30T00:46:00;101605.50;;;2.54;100.00
19748;BME280;10032;51.386;12.516;2024-01-30T00:48:25;101600.81;;;2.48;100.00
19748;BME280;10032;51.386;12.516;2024-01-30T00:50:51;101596.81;;;2.52;100.00
19748;BME280;10032;51.386;12.516;2024-01-30T00:53:16;101602.97;;;2.53;100.00
19748;BME280;10032;51.386;12.516;2024-01-30T00:55:41;101598.16;;;2.56;100.00
19748;BME280;10032;51.386;12.516;2024-01-30T00:58:07;101605.19;;;2.57;100.00
19748;BME280;10032;51.386;12.516;2024-01-30T01:00:33;101595.66;;;2.55;100.00
19748;BME280;10032;51.386;12.516;2024-01-30T01:02:59;101589.78;;;2.51;100.00
19748;BME280;10032;51.386;12.516;2024-01-30T01:05:24;101603.81;;;2.53;100.00
19748;BME280;10032;51.386;12.516;2024-01-30T01:07:50;101594.13;;;2.52;100.00
19748;BME280;10032;51.386;12.516;2024-01-30T01:10:19;101595.13;;;2.51;100.00
19748;BME280;10032;51.386;12.516;2024-01-30T01:12:45;101591.47;;;2.52;100.00
19748;BME280;10032;51.386;12.516;2024-01-30T01:15:11;101592.13;;;2.54;100.00
19748;BME280;10032;51.386;12.516;2024-01-30T01:17:38;101589.78;;;2.51;100.00
19748;BME280;10032;51.386;12.516;2024-01-30T01:20:05;101592.97;;;2.55;100.00
19748;BME280;10032;51.386;12.516;2024-01-30T01:22:32;101584.44;;;2.59;100.00
19748;BME280;10032;51.386;12.516;2024-01-30T01:25:01;101594.16;;;2.60;100.00
19748;BME280;10032;51.386;12.516;2024-01-30T01:27:26;101586.47;;;2.65;100.00
19748;BME280;10032;51.386;12.516;2024-01-30T01:29:52;101586.47;;;2.65;100.00
19748;BME280;10032;51.386;12.516;2024-01-30T01:32:18;101577.44;;;2.66;100.00
19748;BME280;10032;51.386;12.516;2024-01-30T01:34:43;101577.78;;;2.71;100.00
19748;BME280;10032;51.386;12.516;2024-01-30T01:37:09;101577.47;;;2.74;100.00
19748;BME280;10032;51.386;12.516;2024-01-30T01:39:34;101576.16;;;2.78;100.00
19748;BME280;10032;51.386;12.516;2024-01-30T01:42:00;101579.16;;;2.83;100.00
19748;BME280;10032;51.386;12.516;2024-01-30T01:44:27;101576.84;;;2.88;100.00
19748;BME280;10032;51.386;12.516;2024-01-30T01:46:53;101581.03;;;2.91;100.00
19748;BME280;10032;51.386;12.516;2024-01-30T01:49:19;101573.50;;;2.94;100.00
19748;BME280;10032;51.386;12.516;2024-01-30T01:51:48;101576.16;;;2.94;100.00
19748;BME280;10032;51.386;12.516;2024-01-30T01:54:14;101566.63;;;2.92;100.00
19748;BME280;10032;51.386;12.516;2024-01-30T01:56:40;101571.13;;;2.91;100.00
19748;BME280;10032;51.386;12.516;2024-01-30T01:59:07;101567.66;;;2.91;100.00
19748;BME280;10032;51.386;12.516;2024-01-30T02:01:35;101575.66;;;2.91;100.00
19748;BME280;10032;51.386;12.516;2024-01-30T02:04:01;101572.16;;;2.90;100.00
19748;BME280;10032;51.386;12.516;2024-01-30T02:06:27;101569.47;;;2.90;100.00
19748;BME280;10032;51.386;12.516;2024-01-30T02:08:53;101572.00;;;2.92;100.00
19748;BME280;10032;51.386;12.516;2024-01-30T02:11:20;101576.16;;;2.94;100.00
19748;BME280;10032;51.386;12.516;2024-01-30T02:13:46;101571.63;;;2.95;100.00
19748;BME280;10032;51.386;12.516;2024-01-30T02:16:11;101567.78;;;2.97;100.00
19748;BME280;10032;51.386;12.516;2024-01-30T02:18:36;101570.47;;;2.97;100.00
19748;BME280;10032;51.386;12.516;2024-01-30T02:21:07;101568.31;;;2.93;100.00
19748;BME280;10032;51.386;12.516;2024-01-30T02:23:33;101570.47;;;2.97;100.00
19748;BME280;10032;51.386;12.516;2024-01-30T02:25:59;101564.44;;;3.03;100.00
19748;BME280;10032;51.386;12.516;2024-01-30T02:28:24;101565.13;;;3.05;100.00
19748;BME280;10032;51.386;12.516;2024-01-30T02:30:50;101569.81;;;3.03;100.00
19748;BME280;10032;51.386;12.516;2024-01-30T02:33:15;101565.47;;;3.02;100.00
19748;BME280;10032;51.386;12.516;2024-01-30T02:35:41;101565.31;;;3.04;100.00
19748;BME280;10032;51.386;12.516;2024-01-30T02:38:06;101564.13;;;3.06;100.00
19748;BME280;10032;51.386;12.516;2024-01-30T02:40:31;101561.44;;;3.06;100.00
19748;BME280;10032;51.386;12.516;2024-01-30T02:43:01;101561.63;;;3.05;100.00
19748;BME280;10032;51.386;12.516;2024-01-30T02:45:27;101561.63;;;3.05;100.00
19748;BME280;10032;51.386;12.516;2024-01-30T02:47:52;101558.94;;;3.05;100.00
19748;BME280;10032;51.386;12.516;2024-01-30T02:50:18;101552.09;;;3.10;100.00
19748;BME280;10032;51.386;12.516;2024-01-30T02:52:43;101551.41;;;3.16;100.00
19748;BME280;10032;51.386;12.516;2024-01-30T02:55:11;101551.91;;;3.20;100.00
19748;BME280;10032;51.386;12.516;2024-01-30T02:57:38;101559.28;;;3.26;100.00
19748;BME280;10032;51.386;12.516;2024-01-30T03:00:05;101556.13;;;3.30;100.00
19748;BME280;10032;51.386;12.516;2024-01-30T03:02:32;101557.78;;;3.31;100.00
19748;BME280;10032;51.386;12.516;2024-01-30T03:04:59;101556.25;;;3.37;100.00
19748;BME280;10032;51.386;12.516;2024-01-30T03:07:24;101556.78;;;3.40;100.00
19748;BME280;10032;51.386;12.516;2024-01-30T03:09:49;101558.94;;;3.45;100.00
19748;BME280;10032;51.386;12.516;2024-01-30T03:12:15;101559.09;;;3.43;100.00
19748;BME280;10032;51.386;12.516;2024-01-30T03:14:40;101558.94;;;3.45;100.00
19748;BME280;10032;51.386;12.516;2024-01-30T03:17:06;101559.44;;;3.48;100.00
19748;BME280;10032;51.386;12.516;2024-01-30T03:19:31;101558.25;;;3.51;100.00
19748;BME280;10032;51.386;12.516;2024-01-30T03:21:56;101546.38;;;3.53;100.00
19748;BME280;10032;51.386;12.516;2024-01-30T03:24:22;101549.69;;;3.55;100.00
19748;BME280;10032;51.386;12.516;2024-01-30T03:26:47;101551.41;;;3.56;100.00
19748;BME280;10032;51.386;12.516;2024-01-30T03:29:12;101545.34;;;3.62;100.00
19748;BME280;10032;51.386;12.516;2024-01-30T03:31:39;101541.31;;;3.66;100.00
19748;BME280;10032;51.386;12.516;2024-01-30T03:34:04;101545.00;;;3.65;100.00
19748;BME280;10032;51.386;12.516;2024-01-30T03:36:30;101549.88;;;3.62;100.00
19748;BME280;10032;51.386;12.516;2024-01-30T03:38:58;101550.22;;;3.59;100.00
19748;BME280;10032;51.386;12.516;2024-01-30T03:41:23;101541.00;;;3.53;100.00
19748;BME280;10032;51.386;12.516;2024-01-30T03:43:49;101538.16;;;3.47;100.00
19748;BME280;10032;51.386;12.516;2024-01-30T03:46:14;101539.84;;;3.40;100.00
19748;BME280;10032;51.386;12.516;2024-01-30T03:48:39;101529.47;;;3.37;100.00
19748;BME280;10032;51.386;12.516;2024-01-30T03:51:05;101537.34;;;3.38;100.00
19748;BME280;10032;51.386;12.516;2024-01-30T03:53:31;101537.34;;;3.38;100.00
19748;BME280;10032;51.386;12.516;2024-01-30T03:55:56;101532.84;;;3.39;100.00
19748;BME280;10032;51.386;12.516;2024-01-30T03:58:22;101534.16;;;3.35;100.00
19748;BME280;10032;51.386;12.516;2024-01-30T04:00:47;101528.97;;;3.33;100.00
19748;BME280;10032;51.386;12.516;2024-01-30T04:03:14;101538.34;;;3.29;100.00
19748;BME280;10032;51.386;12.516;2024-01-30T04:05:40;101537.84;;;3.26;100.00
19748;BME280;10032;51.386;12.516;2024-01-30T04:08:07;101527.66;;;3.21;100.00
19748;BME280;10032;51.386;12.516;2024-01-30T04:10:32;101527.97;;;3.18;100.00
19748;BME280;10032;51.386;12.516;2024-01-30T04:12:57;101534.50;;;3.16;100.00
19748;BME280;10032;51.386;12.516;2024-01-30T04:15:23;101531.00;;;3.15;100.00
19748;BME280;10032;51.386;12.516;2024-01-30T04:17:48;101526.84;;;3.13;100.00
19748;BME280;10032;51.386;12.516;2024-01-30T04:20:14;101530.16;;;3.15;100.00
19748;BME280;10032;51.386;12.516;2024-01-30T04:22:44;101529.84;;;3.18;100.00
19748;BME280;10032;51.386;12.516;2024-01-30T04:25:11;101528.66;;;3.20;100.00
19748;BME280;10032;51.386;12.516;2024-01-30T04:27:37;101525.97;;;3.28;100.00
19748;BME280;10032;51.386;12.516;2024-01-30T04:30:02;101531.16;;;3.38;100.00
19748;BME280;10032;51.386;12.516;2024-01-30T04:32:28;101526.31;;;3.41;100.00
19748;BME280;10032;51.386;12.516;2024-01-30T04:34:53;101524.94;;;3.45;100.00
19748;BME280;10032;51.386;12.516;2024-01-30T04:37:18;101516.25;;;3.51;100.00
19748;BME280;10032;51.386;12.516;2024-01-30T04:39:46;101515.41;;;3.51;100.00
19748;BME280;10032;51.386;12.516;2024-01-30T04:42:12;101513.22;;;3.54;100.00
19748;BME280;10032;51.386;12.516;2024-01-30T04:44:37;101515.56;;;3.57;100.00
19748;BME280;10032;51.386;12.516;2024-01-30T04:47:03;101517.38;;;3.57;100.00
19748;BME280;10032;51.386;12.516;2024-01-30T04:49:30;101515.56;;;3.57;100.00
19748;BME280;10032;51.386;12.516;2024-01-30T04:51:55;101518.56;;;3.62;100.00
19748;BME280;10032;51.386;12.516;2024-01-30T04:54:21;101514.19;;;3.61;100.00
19748;BME280;10032;51.386;12.516;2024-01-30T04:56:47;101515.56;;;3.57;100.00
19748;BME280;10032;51.386;12.516;2024-01-30T04:59:12;101519.25;;;3.56;100.00
19748;BME280;10032;51.386;12.516;2024-01-30T05:01:37;101513.38;;;3.53;100.00
19748;BME280;10032;51.386;12.516;2024-01-30T05:04:03;101519.56;;;3.53;100.00
19748;BME280;10032;51.386;12.516;2024-01-30T05:06:29;101523.28;;;3.52;100.00
19748;BME280;10032;51.386;12.516;2024-01-30T05:08:55;101518.06;;;3.51;100.00
19748;BME280;10032;51.386;12.516;2024-01-30T05:11:21;101528.63;;;3.52;100.00
19748;BME280;10032;51.386;12.516;2024-01-30T05:13:46;101526.13;;;3.51;100.00
19748;BME280;10032;51.386;12.516;2024-01-30T05:16:11;101527.28;;;3.48;100.00
19748;BME280;10032;51.386;12.516;2024-01-30T05:18:37;101518.59;;;3.46;100.00
19748;BME280;10032;51.386;12.516;2024-01-30T05:21:03;101513.94;;;3.40;100.00
19748;BME280;10032;51.386;12.516;2024-01-30T05:23:28;101513.25;;;3.38;100.00
19748;BME280;10032;51.386;12.516;2024-01-30T05:25:54;101514.75;;;3.41;100.00
19748;BME280;10032;51.386;12.516;2024-01-30T05:28:19;101514.91;;;3.39;100.00
19748;BME280;10032;51.386;12.516;2024-01-30T05:30:45;101522.28;;;3.37;100.00
19748;BME280;10032;51.386;12.516;2024-01-30T05:33:10;101515.59;;;3.41;100.00
19748;BME280;10032;51.386;12.516;2024-01-30T05:35:37;101515.22;;;3.44;100.00
19748;BME280;10032;51.386;12.516;2024-01-30T05:38:03;101525.94;;;3.44;100.00
19748;BME280;10032;51.386;12.516;2024-01-30T05:40:28;101521.44;;;3.45;100.00
19748;BME280;10032;51.386;12.516;2024-01-30T05:42:53;101529.31;;;3.46;100.00
19748;BME280;10032;51.386;12.516;2024-01-30T05:45:19;101532.31;;;3.51;100.00
19748;BME280;10032;51.386;12.516;2024-01-30T05:47:44;101529.13;;;3.56;100.00
19748;BME280;10032;51.386;12.516;2024-01-30T05:50:09;101527.94;;;3.58;100.00
19748;BME280;10032;51.386;12.516;2024-01-30T05:52:35;101520.75;;;3.59;100.00
19748;BME280;10032;51.386;12.516;2024-01-30T05:55:00;101522.41;;;3.60;100.00
19748;BME280;10032;51.386;12.516;2024-01-30T05:57:26;101525.09;;;3.60;100.00
19748;BME280;10032;51.386;12.516;2024-01-30T05:59:51;101533.94;;;3.60;100.00
19748;BME280;10032;51.386;12.516;2024-01-30T06:02:17;101527.09;;;3.58;100.00
19748;BME280;10032;51.386;12.516;2024-01-30T06:04:42;101519.25;;;3.56;100.00
19748;BME280;10032;51.386;12.516;2024-01-30T06:07:09;101521.25;;;3.54;100.00
19748;BME280;10032;51.386;12.516;2024-01-30T06:09:35;101518.94;;;3.51;100.00
19748;BME280;10032;51.386;12.516;2024-01-30T06:12:00;101523.59;;;3.49;100.00
19748;BME280;10032;51.386;12.516;2024-01-30T06:14:25;101516.91;;;3.45;100.00
19748;BME280;10032;51.386;12.516;2024-01-30T06:16:51;101521.97;;;3.40;100.00
19748;BME280;10032;51.386;12.516;2024-01-30T06:19:16;101520.47;;;3.38;100.00
19748;BME280;10032;51.386;12.516;2024-01-30T06:21:41;101519.94;;;3.34;100.00
19748;BME280;10032;51.386;12.516;2024-01-30T06:24:07;101513.25;;;3.30;100.00
19748;BME280;10032;51.386;12.516;2024-01-30T06:26:32;101522.28;;;3.29;100.00
19748;BME280;10032;51.386;12.516;2024-01-30T06:28:58;101524.47;;;3.26;100.00
19748;BME280;10032;51.386;12.516;2024-01-30T06:31:23;101513.91;;;3.24;100.00
19748;BME280;10032;51.386;12.516;2024-01-30T06:33:49;101516.75;;;3.31;100.00
19748;BME280;10032;51.386;12.516;2024-01-30T06:36:15;101519.94;;;3.34;100.00
19748;BME280;10032;51.386;12.516;2024-01-30T06:38:41;101517.59;;;3.39;100.00
19748;BME280;10032;51.386;12.516;2024-01-30T06:41:06;101517.06;;;3.52;100.00
19748;BME280;10032;51.386;12.516;2024-01-30T06:43:32;101519.53;;;3.61;100.00
19748;BME280;10032;51.386;12.516;2024-01-30T06:45:58;101522.22;;;3.69;100.00
19748;BME280;10032;51.386;12.516;2024-01-30T06:48:24;101525.06;;;3.76;100.00
19748;BME280;10032;51.386;12.516;2024-01-30T06:50:50;101523.50;;;3.81;100.00
19748;BME280;10032;51.386;12.516;2024-01-30T06:53:16;101519.50;;;3.85;100.00
19748;BME280;10032;51.386;12.516;2024-01-30T06:55:41;101525.16;;;3.90;100.00
19748;BME280;10032;51.386;12.516;2024-01-30T06:58:07;101524.63;;;3.95;100.00
19748;BME280;10032;51.386;12.516;2024-01-30T07:00:32;101521.63;;;3.98;100.00
19748;BME280;10032;51.386;12.516;2024-01-30T07:02:57;101525.44;;;4.03;100.00
19748;BME280;10032;51.386;12.516;2024-01-30T07:05:23;101522.44;;;4.06;100.00
19748;BME280;10032;51.386;12.516;2024-01-30T07:07:48;101513.03;;;4.10;100.00
19748;BME280;10032;51.386;12.516;2024-01-30T07:10:14;101517.84;;;4.15;100.00
19748;BME280;10032;51.386;12.516;2024-01-30T07:12:39;101506.81;;;4.18;100.00
19748;BME280;10032;51.386;12.516;2024-01-30T07:15:05;101507.94;;;4.23;100.00
19748;BME280;10032;51.386;12.516;2024-01-30T07:17:33;101514.63;;;4.27;100.00
19748;BME280;10032;51.386;12.516;2024-01-30T07:19:58;101509.56;;;4.32;100.00
19748;BME280;10032;51.386;12.516;2024-01-30T07:22:24;101511.53;;;4.38;100.00
19748;BME280;10032;51.386;12.516;2024-01-30T07:24:50;101509.47;;;4.48;100.00
19748;BME280;10032;51.386;12.516;2024-01-30T07:27:17;101512.09;;;4.56;100.00
19748;BME280;10032;51.386;12.516;2024-01-30T07:29:42;101516.09;;;4.60;100.00
19748;BME280;10032;51.386;12.516;2024-01-30T07:32:08;101508.19;;;4.67;100.00
19748;BME280;10032;51.386;12.516;2024-01-30T07:34:33;101503.25;;;4.78;100.00
19748;BME280;10032;51.386;12.516;2024-01-30T07:36:59;101510.41;;;4.86;100.00
19748;BME280;10032;51.386;12.516;2024-01-30T07:39:24;101515.22;;;4.90;100.00
19748;BME280;10032;51.386;12.516;2024-01-30T07:41:49;101517.19;;;4.96;100.00
19748;BME280;10032;51.386;12.516;2024-01-30T07:44:15;101512.97;;;5.02;100.00
19748;BME280;10032;51.386;12.516;2024-01-30T07:46:41;101516.41;;;5.10;100.00
19748;BME280;10032;51.386;12.516;2024-01-30T07:49:06;101511.34;;;5.15;100.00
19748;BME280;10032;51.386;12.516;2024-01-30T07:51:32;101507.06;;;5.21;100.00
19748;BME280;10032;51.386;12.516;2024-01-30T07:53:58;101511.91;;;5.25;100.00
19748;BME280;10032;51.386;12.516;2024-01-30T07:56:23;101510.34;;;5.31;100.00
19748;BME280;10032;51.386;12.516;2024-01-30T07:58:49;101507.75;;;5.37;100.00
19748;BME280;10032;51.386;12.516;2024-01-30T08:01:15;101511.09;;;5.39;100.00
19748;BME280;10032;51.386;12.516;2024-01-30T08:03:40;101503.13;;;5.46;100.00
19748;BME280;10032;51.386;12.516;2024-01-30T08:06:07;101508.97;;;5.49;100.00
19748;BME280;10032;51.386;12.516;2024-01-30T08:08:32;101499.34;;;5.55;100.00
19748;BME280;10032;51.386;12.516;2024-01-30T08:10:57;101505.84;;;5.60;100.00
19748;BME280;10032;51.386;12.516;2024-01-30T08:13:23;101506.13;;;5.65;100.00
19748;BME280;10032;51.386;12.516;2024-01-30T08:15:48;101505.19;;;5.73;100.00
19748;BME280;10032;51.386;12.516;2024-01-30T08:18:14;101505.31;;;5.79;100.00
19748;BME280;10032;51.386;12.516;2024-01-30T08:20:39;101506.63;;;5.83;100.00
19748;BME280;10032;51.386;12.516;2024-01-30T08:23:04;101509.97;;;5.85;100.00
19748;BME280;10032;51.386;12.516;2024-01-30T08:25:30;101509.22;;;5.91;100.00
19748;BME280;10032;51.386;12.516;2024-01-30T08:27:55;101512.00;;;5.98;100.00
19748;BME280;10032;51.386;12.516;2024-01-30T08:30:22;101511.06;;;6.05;100.00
19748;BME280;10032;51.386;12.516;2024-01-30T08:32:47;101504.94;;;6.11;100.00
19748;BME280;10032;51.386;12.516;2024-01-30T08:35:13;101510.41;;;6.18;100.00
19748;BME280;10032;51.386;12.516;2024-01-30T08:37:40;101500.38;;;6.26;100.00
19748;BME280;10032;51.386;12.516;2024-01-30T08:40:07;101503.97;;;6.33;100.00
19748;BME280;10032;51.386;12.516;2024-01-30T08:42:33;101510.91;;;6.42;100.00
19748;BME280;10032;51.386;12.516;2024-01-30T08:44:59;101516.16;;;6.50;100.00
19748;BME280;10032;51.386;12.516;2024-01-30T08:47:24;101507.16;;;6.58;100.00
19748;BME280;10032;51.386;12.516;2024-01-30T08:49:50;101499.78;;;6.66;100.00
19748;BME280;10032;51.386;12.516;2024-01-30T08:52:16;101509.41;;;6.75;100.00
19748;BME280;10032;51.386;12.516;2024-01-30T08:54:42;101499.34;;;6.84;100.00
19748;BME280;10032;51.386;12.516;2024-01-30T08:57:07;101501.28;;;6.90;100.00
19748;BME280;10032;51.386;12.516;2024-01-30T08:59:33;101500.50;;;6.96;100.00
19748;BME280;10032;51.386;12.516;2024-01-30T09:01:59;101504.72;;;7.05;100.00
19748;BME280;10032;51.386;12.516;2024-01-30T09:04:24;101495.06;;;7.10;100.00
19748;BME280;10032;51.386;12.516;2024-01-30T09:06:50;101502.34;;;7.16;100.00
19748;BME280;10032;51.386;12.516;2024-01-30T09:09:16;101498.88;;;7.22;100.00
19748;BME280;10032;51.386;12.516;2024-01-30T09:11:43;101506.00;;;7.30;100.00
19748;BME280;10032;51.386;12.516;2024-01-30T09:14:08;101507.47;;;7.32;100.00
19748;BME280;10032;51.386;12.516;2024-01-30T09:16:34;101501.47;;;7.37;100.00
19748;BME280;10032;51.386;12.516;2024-01-30T09:18:59;101501.34;;;7.45;100.00
19748;BME280;10032;51.386;12.516;2024-01-30T09:21:24;101497.66;;;7.52;100.00
19748;BME280;10032;51.386;12.516;2024-01-30T09:23:50;101499.56;;;7.58;100.00
19748;BME280;10032;51.386;12.516;2024-01-30T09:26:15;101499.59;;;7.65;100.00
19748;BME280;10032;51.386;12.516;2024-01-30T09:28:41;101499.84;;;7.70;100.00
19748;BME280;10032;51.386;12.516;2024-01-30T09:31:11;101497.00;;;7.78;100.00
19748;BME280;10032;51.386;12.516;2024-01-30T09:33:37;101499.09;;;7.82;100.00
19748;BME280;10032;51.386;12.516;2024-01-30T09:36:04;101501.66;;;7.90;100.00
19748;BME280;10032;51.386;12.516;2024-01-30T09:38:30;101496.72;;;8.00;100.00
19748;BME280;10032;51.386;12.516;2024-01-30T09:40:55;101501.31;;;8.06;100.00
19748;BME280;10032;51.386;12.516;2024-01-30T09:43:23;101501.13;;;8.14;100.00
19748;BME280;10032;51.386;12.516;2024-01-30T09:45:50;101503.06;;;8.20;100.00
19748;BME280;10032;51.386;12.516;2024-01-30T09:48:16;101494.78;;;8.28;100.00
19748;BME280;10032;51.386;12.516;2024-01-30T09:50:41;101490.66;;;8.39;100.00
19748;BME280;10032;51.386;12.516;2024-01-30T09:53:08;101490.31;;;8.48;100.00
19748;BME280;10032;51.386;12.516;2024-01-30T09:55:35;101488.03;;;8.52;100.00
19748;BME280;10032;51.386;12.516;2024-01-30T09:58:01;101485.13;;;8.60;100.00
19748;BME280;10032;51.386;12.516;2024-01-30T10:00:27;101487.44;;;8.63;100.00
19748;BME280;10032;51.386;12.516;2024-01-30T10:02:53;101493.66;;;8.70;100.00
19748;BME280;10032;51.386;12.516;2024-01-30T10:05:19;101488.28;;;8.76;100.00
19748;BME280;10032;51.386;12.516;2024-01-30T10:07:56;101489.56;;;8.80;100.00
19748;BME280;10032;51.386;12.516;2024-01-30T10:10:25;101485.19;;;8.86;100.00
19748;BME280;10032;51.386;12.516;2024-01-30T10:12:50;101488.34;;;8.89;100.00
19748;BME280;10032;51.386;12.516;2024-01-30T10:15:17;101492.06;;;8.95;100.00
19748;BME280;10032;51.386;12.516;2024-01-30T10:17:44;101494.13;;;8.99;100.00
19748;BME280;10032;51.386;12.516;2024-01-30T10:20:10;101485.22;;;9.05;100.00
19748;BME280;10032;51.386;12.516;2024-01-30T10:22:36;101482.91;;;9.15;100.00
19748;BME280;10032;51.386;12.516;2024-01-30T10:25:01;101480.44;;;9.20;99.36
19748;BME280;10032;51.386;12.516;2024-01-30T10:27:27;101474.22;;;9.26;99.31
19748;BME280;10032;51.386;12.516;2024-01-30T10:29:53;101477.72;;;9.33;98.54
19748;BME280;10032;51.386;12.516;2024-01-30T10:32:19;101470.03;;;9.37;98.12
19748;BME280;10032;51.386;12.516;2024-01-30T10:34:45;101463.78;;;9.43;98.43
19748;BME280;10032;51.386;12.516;2024-01-30T10:37:11;101463.78;;;9.49;97.58
19748;BME280;10032;51.386;12.516;2024-01-30T10:39:44;101458.78;;;9.53;97.51
19748;BME280;10032;51.386;12.516;2024-01-30T10:42:14;101458.78;;;9.59;97.51
19748;BME280;10032;51.386;12.516;2024-01-30T10:47:12;101459.16;;;9.69;96.85
19748;BME280;10032;51.386;12.516;2024-01-30T10:49:41;101448.53;;;9.74;96.95
19748;BME280;10032;51.386;12.516;2024-01-30T10:52:09;101447.47;;;9.82;96.61
19748;BME280;10032;51.386;12.516;2024-01-30T10:54:36;101435.41;;;9.84;96.49
19748;BME280;10032;51.386;12.516;2024-01-30T10:57:03;101446.38;;;9.89;96.26
19748;BME280;10032;51.386;12.516;2024-01-30T10:59:30;101449.72;;;9.98;96.31
19748;BME280;10032;51.386;12.516;2024-01-30T11:01:58;101443.47;;;10.04;96.58
19748;BME280;10032;51.386;12.516;2024-01-30T11:04:24;101430.72;;;10.11;96.55
19748;BME280;10032;51.386;12.516;2024-01-30T11:06:51;101431.13;;;10.14;96.22
19748;BME280;10032;51.386;12.516;2024-01-30T11:09:17;101438.84;;;10.17;95.91
19748;BME280;10032;51.386;12.516;2024-01-30T11:11:57;101435.69;;;10.20;95.73
19748;BME280;10032;51.386;12.516;2024-01-30T11:14:26;101427.31;;;10.28;96.10
19748;BME280;10032;51.386;12.516;2024-01-30T11:16:52;101427.03;;;10.36;95.87
19748;BME280;10032;51.386;12.516;2024-01-30T11:19:27;101424.75;;;10.40;95.67
19748;BME280;10032;51.386;12.516;2024-01-30T11:21:53;101432.03;;;10.46;95.73
19748;BME280;10032;51.386;12.516;2024-01-30T11:24:25;101422.84;;;10.47;95.43
19748;BME280;10032;51.386;12.516;2024-01-30T11:26:58;101417.38;;;10.53;95.57
19748;BME280;10032;51.386;12.516;2024-01-30T11:29:27;101422.75;;;10.60;95.89
19748;BME280;10032;51.386;12.516;2024-01-30T11:31:58;101422.91;;;10.65;95.77
19748;BME280;10032;51.386;12.516;2024-01-30T11:34:24;101427.25;;;10.72;95.92
19748;BME280;10032;51.386;12.516;2024-01-30T11:36:56;101419.28;;;10.77;95.93
19748;BME280;10032;51.386;12.516;2024-01-30T11:39:29;101417.22;;;10.79;95.94
19748;BME280;10032;51.386;12.516;2024-01-30T11:41:55;101413.19;;;10.82;95.51
19748;BME280;10032;51.386;12.516;2024-01-30T11:44:21;101408.78;;;10.87;95.78
19748;BME280;10032;51.386;12.516;2024-01-30T11:46:50;101407.31;;;10.91;95.97
19748;BME280;10032;51.386;12.516;2024-01-30T11:49:16;101417.69;;;10.94;96.16
19748;BME280;10032;51.386;12.516;2024-01-30T11:51:43;101419.28;;;11.02;96.32
19748;BME280;10032;51.386;12.516;2024-01-30T11:54:08;101412.16;;;11.07;96.55
19748;BME280;10032;51.386;12.516;2024-01-30T11:56:34;101411.72;;;11.10;96.03
19748;BME280;10032;51.386;12.516;2024-01-30T11:58:59;101400.22;;;11.15;95.96
19748;BME280;10032;51.386;12.516;2024-01-30T12:01:26;101404.97;;;11.19;95.90
19748;BME280;10032;51.386;12.516;2024-01-30T12:03:52;101398.97;;;11.35;96.50
19748;BME280;10032;51.386;12.516;2024-01-30T12:06:18;101400.03;;;11.52;96.32
19748;BME280;10032;51.386;12.516;2024-01-30T12:08:57;101396.75;;;11.68;95.90
19748;BME280;10032;51.386;12.516;2024-01-30T12:11:23;101387.47;;;11.94;96.88
19748;BME280;10032;51.386;12.516;2024-01-30T12:13:49;101379.84;;;12.02;95.16
19748;BME280;10032;51.386;12.516;2024-01-30T12:16:16;101379.06;;;12.13;95.57
19748;BME280;10032;51.386;12.516;2024-01-30T12:18:41;101370.13;;;12.24;94.71
19748;BME280;10032;51.386;12.516;2024-01-30T12:21:06;101373.56;;;12.31;95.42
19748;BME280;10032;51.386;12.516;2024-01-30T12:23:34;101376.91;;;12.33;95.14
19748;BME280;10032;51.386;12.516;2024-01-30T12:26:01;101369.03;;;12.43;95.28
19748;BME280;10032;51.386;12.516;2024-01-30T12:28:29;101371.75;;;12.55;95.19
19748;BME280;10032;51.386;12.516;2024-01-30T12:31:01;101375.47;;;12.60;94.80
19748;BME280;10032;51.386;12.516;2024-01-30T12:33:26;101363.41;;;12.68;94.71
19748;BME280;10032;51.386;12.516;2024-01-30T12:35:53;101365.41;;;12.72;94.57
19748;BME280;10032;51.386;12.516;2024-01-30T12:38:18;101365.56;;;12.77;93.66